Terminal Aerodrome Forecast
Issued by NWS Austin/San Antonio, TX

Home | Current Version | Previous Version | Text Only | Print | Product List | Glossary On
Versions: 1 2 3 4 5 6 7 8 9 10 11 12 13 14 15 16 17 18 19 20 21 22 23 24 25
000
FTUS44 KEWX 291128
TAFDRT
TAF
KDRT 291128Z 2912/3012 12008KT 1SM -DZ BR OVC004
     FM291400 14006KT 3SM BR VCSH OVC006
     FM291600 17097KT 6SM HZ VCSH BKN012
     FM291800 32008KT P6SM SKC
     FM300200 05005KT P6SM SKC=

USA.gov is the U.S. government's official web portal to all federal, state and local government web resources and services.